createdAt,value
2023-10-22T00:02:41.853Z,7.20
2023-10-22T00:05:44.823Z,6.57
2023-10-22T00:08:48.337Z,7.47
2023-10-22T00:11:50.746Z,6.70
2023-10-22T00:14:52.895Z,6.70
2023-10-22T00:17:54.903Z,5.60
2023-10-22T00:20:56.928Z,7.82
2023-10-22T00:24:01.094Z,6.53
2023-10-22T00:27:03.451Z,7.40
2023-10-22T00:30:07.138Z,6.65
2023-10-22T00:33:09.191Z,7.38
2023-10-22T00:36:11.438Z,7.70
2023-10-22T00:39:15.137Z,6.47
2023-10-22T00:42:17.411Z,6.35
2023-10-22T00:45:20.725Z,5.88
2023-10-22T00:48:23.205Z,6.80
2023-10-22T00:51:25.639Z,6.60
2023-10-22T00:54:29.158Z,7.13
2023-10-22T00:57:33.486Z,8.07
2023-10-22T01:00:37.033Z,7.63
2023-10-22T01:03:39.272Z,7.95
2023-10-22T01:06:41.409Z,6.13
2023-10-22T01:09:45.057Z,6.32
2023-10-22T01:12:47.796Z,7.03
2023-10-22T01:15:49.717Z,6.60
2023-10-22T01:18:52.660Z,7.68
2023-10-22T01:21:54.615Z,7.72
2023-10-22T01:24:57.912Z,8.48
2023-10-22T01:28:00.526Z,8.40
2023-10-22T01:31:02.835Z,7.57
2023-10-22T01:34:05.696Z,7.25
2023-10-22T01:37:07.535Z,5.90
2023-10-22T01:40:13.160Z,4.63
2023-10-22T01:43:15.196Z,7.43
2023-10-22T01:46:17.039Z,4.68
2023-10-22T01:49:19.537Z,5.20
2023-10-22T01:52:22.265Z,5.70
2023-10-22T01:55:25.640Z,5.35
2023-10-22T01:58:28.460Z,8.45
2023-10-22T02:01:30.286Z,8.75
2023-10-22T02:04:33.135Z,11.95
2023-10-22T02:07:38.714Z,12.77
2023-10-22T02:10:41.974Z,11.95
2023-10-22T02:13:43.888Z,12.60
2023-10-22T02:16:45.757Z,12.95
2023-10-22T02:19:48.460Z,13.20
2023-10-22T02:22:50.325Z,12.75
2023-10-22T02:25:53.780Z,11.65
2023-10-22T02:28:55.702Z,13.00
2023-10-22T02:31:57.616Z,14.25
2023-10-22T02:34:59.474Z,13.60
2023-10-22T02:38:01.522Z,14.75
2023-10-22T02:41:04.756Z,10.52
2023-10-22T02:44:06.817Z,10.02
2023-10-22T02:47:10.166Z,10.50
2023-10-22T02:50:12.615Z,10.35
2023-10-22T02:53:15.691Z,10.73
2023-10-22T02:56:18.912Z,9.77
2023-10-22T02:59:20.800Z,9.30
2023-10-22T03:02:23.708Z,9.68
2023-10-22T03:05:25.890Z,10.18
2023-10-22T03:08:27.921Z,9.50
2023-10-22T03:11:31.857Z,12.00
2023-10-22T03:14:33.793Z,10.65
2023-10-22T03:17:35.904Z,11.00
2023-10-22T03:20:37.987Z,10.10
2023-10-22T03:23:42.615Z,9.95
2023-10-22T03:26:47.807Z,9.15
2023-10-22T03:29:49.968Z,10.52
2023-10-22T03:32:52.453Z,10.15
2023-10-22T03:35:54.610Z,9.45
2023-10-22T03:38:57.493Z,9.80
2023-10-22T03:42:00.985Z,9.65
2023-10-22T03:45:03.644Z,9.52
2023-10-22T03:48:06.384Z,9.13
2023-10-22T03:51:09.443Z,9.35
2023-10-22T03:54:13.412Z,10.50
2023-10-22T03:57:16.858Z,9.40
2023-10-22T04:00:21.866Z,10.65
2023-10-22T04:03:24.769Z,11.43
2023-10-22T04:06:26.809Z,11.02
2023-10-22T04:09:30.592Z,9.85
2023-10-22T04:12:33.978Z,8.43
2023-10-22T04:15:38.330Z,7.45
2023-10-22T04:18:40.670Z,7.45
2023-10-22T04:21:43.590Z,6.57
2023-10-22T04:24:46.841Z,6.43
2023-10-22T04:27:50.571Z,5.10
2023-10-22T04:30:55.858Z,3.80
2023-10-22T04:33:58.158Z,3.50
2023-10-22T04:37:00.126Z,2.60
2023-10-22T04:40:02.104Z,3.22
2023-10-22T04:43:05.391Z,1.75
2023-10-22T04:46:07.421Z,3.25
2023-10-22T04:49:10.077Z,2.35
2023-10-22T04:52:15.200Z,1.67
2023-10-22T04:55:17.183Z,1.85
2023-10-22T04:58:20.546Z,2.05
2023-10-22T05:01:22.487Z,1.48
2023-10-22T05:04:25.120Z,1.30
2023-10-22T05:07:27.036Z,1.10
2023-10-22T05:10:29.054Z,1.45
2023-10-22T05:13:32.445Z,1.65
2023-10-22T05:16:34.764Z,1.20
2023-10-22T05:19:37.274Z,1.50
2023-10-22T05:22:39.820Z,1.63
2023-10-22T05:25:41.752Z,1.10
2023-10-22T05:28:45.377Z,1.63
2023-10-22T05:31:47.296Z,1.77
2023-10-22T05:34:49.977Z,1.40
2023-10-22T05:37:53.211Z,1.70
2023-10-22T05:40:55.093Z,2.03
2023-10-22T05:44:02.061Z,2.40
2023-10-22T05:47:05.081Z,1.60
2023-10-22T05:50:07.896Z,2.40
2023-10-22T05:53:09.945Z,2.40
2023-10-22T05:56:11.968Z,1.90
2023-10-22T05:59:15.309Z,2.10
2023-10-22T06:02:17.223Z,2.40
2023-10-22T06:05:23.992Z,2.22
2023-10-22T06:08:27.571Z,2.05
2023-10-22T06:11:29.419Z,2.55
2023-10-22T06:14:33.502Z,1.63
2023-10-22T06:17:35.373Z,1.58
2023-10-22T06:20:39.513Z,1.85
2023-10-22T06:23:41.648Z,1.40
2023-10-22T06:26:43.838Z,1.67
2023-10-22T06:29:49.579Z,1.10
2023-10-22T06:32:52.573Z,1.38
2023-10-22T06:35:54.492Z,1.10
2023-10-22T06:38:56.481Z,1.00
2023-10-22T06:42:00.966Z,1.00
2023-10-22T06:45:06.826Z,1.20
2023-10-22T06:48:08.927Z,1.15
2023-10-22T06:51:14.681Z,1.33
2023-10-22T06:54:16.898Z,1.98
2023-10-22T06:57:18.932Z,2.67
2023-10-22T07:00:23.269Z,4.35
2023-10-22T07:03:25.238Z,5.00
2023-10-22T07:06:27.716Z,4.97
2023-10-22T07:09:29.573Z,4.05
2023-10-22T07:12:31.766Z,4.95
2023-10-22T07:15:34.936Z,4.07
2023-10-22T07:18:37.122Z,4.25
2023-10-22T07:21:39.709Z,3.85
2023-10-22T07:24:41.535Z,4.38
2023-10-22T07:27:43.746Z,3.65
2023-10-22T07:30:50.677Z,3.60
2023-10-22T07:33:52.737Z,3.65
2023-10-22T07:36:54.684Z,3.22
2023-10-22T07:39:56.927Z,3.28
2023-10-22T07:42:58.813Z,2.92
2023-10-22T07:46:03.218Z,2.95
2023-10-22T07:49:05.796Z,2.67
2023-10-22T07:52:07.758Z,2.78
2023-10-22T07:55:10.714Z,3.53
2023-10-22T07:58:13.100Z,2.72
2023-10-22T08:01:16.452Z,2.50
2023-10-22T08:04:18.513Z,3.05
2023-10-22T08:07:20.571Z,3.20
2023-10-22T08:10:22.661Z,3.60
2023-10-22T08:13:24.649Z,3.30
2023-10-22T08:16:28.020Z,2.95
2023-10-22T08:19:30.807Z,3.10
2023-10-22T08:22:32.722Z,3.03
2023-10-22T08:25:35.717Z,2.75
2023-10-22T08:28:38.789Z,2.15
2023-10-22T08:31:42.124Z,2.42
2023-10-22T08:34:44.593Z,2.08
2023-10-22T08:37:46.532Z,1.83
2023-10-22T08:40:51.881Z,1.90
2023-10-22T08:43:53.965Z,2.40
2023-10-22T08:46:57.491Z,2.35
2023-10-22T08:50:01.069Z,2.35
2023-10-22T08:53:02.946Z,2.22
2023-10-22T08:56:05.886Z,2.20
2023-10-22T08:59:09.872Z,2.55
2023-10-22T09:02:15.174Z,2.20
2023-10-22T09:05:17.612Z,1.95
2023-10-22T09:08:19.687Z,2.15
2023-10-22T09:11:22.545Z,2.42
2023-10-22T09:14:25.605Z,1.90
2023-10-22T09:17:30.725Z,1.92
2023-10-22T09:20:35.410Z,1.85
2023-10-22T09:23:37.579Z,1.83
2023-10-22T09:26:44.244Z,1.92
2023-10-22T09:29:49.961Z,1.67
2023-10-22T09:32:53.346Z,1.77
2023-10-22T09:36:03.007Z,1.80
2023-10-22T09:39:06.152Z,3.00
2023-10-22T09:42:16.671Z,1.48
2023-10-22T09:45:21.692Z,1.73
2023-10-22T09:48:28.738Z,2.35
2023-10-22T09:51:32.560Z,2.50
2023-10-22T09:54:38.900Z,2.00
2023-10-22T09:57:42.228Z,2.20
2023-10-22T10:00:50.844Z,1.85
2023-10-22T10:03:59.207Z,2.00
2023-10-22T10:07:04.201Z,1.60
2023-10-22T10:10:08.437Z,2.28
2023-10-22T10:13:10.456Z,3.58
2023-10-22T10:16:13.295Z,4.90
2023-10-22T10:19:23.925Z,2.95
2023-10-22T10:22:40.229Z,3.78
2023-10-22T10:25:43.782Z,3.10
2023-10-22T10:28:47.273Z,1.95
2023-10-22T10:31:51.845Z,2.03
2023-10-22T10:35:01.928Z,1.30
2023-10-22T10:38:25.641Z,1.98
2023-10-22T10:41:54.646Z,1.48
2023-10-22T10:45:08.158Z,1.20
2023-10-22T10:48:43.541Z,1.10
2023-10-22T10:52:01.237Z,1.30
2023-10-22T10:55:09.433Z,1.10
2023-10-22T10:58:13.515Z,1.00
2023-10-22T11:01:16.238Z,1.20
2023-10-22T11:04:18.291Z,1.15
2023-10-22T11:07:27.249Z,1.33
2023-10-22T11:10:32.287Z,1.10
2023-10-22T11:13:34.134Z,1.13
2023-10-22T11:16:51.551Z,0.98
2023-10-22T11:19:53.547Z,1.02
2023-10-22T11:22:57.740Z,0.98
2023-10-22T11:26:00.250Z,1.00
2023-10-22T11:29:02.128Z,0.85
2023-10-22T11:32:07.416Z,0.70
2023-10-22T11:38:22.219Z,0.90
2023-10-22T11:41:24.147Z,0.90
2023-10-22T11:44:31.994Z,1.05
2023-10-22T11:47:34.695Z,0.93
2023-10-22T11:50:36.923Z,0.95
2023-10-22T11:53:44.208Z,0.95
2023-10-22T11:56:46.042Z,1.38
2023-10-22T11:59:47.895Z,1.20
2023-10-22T12:02:50.134Z,1.10
2023-10-22T12:05:52.040Z,1.17
2023-10-22T12:08:55.425Z,1.13
2023-10-22T12:11:58.048Z,1.10
2023-10-22T12:15:00.218Z,1.73
2023-10-22T12:18:02.181Z,1.05
2023-10-22T12:21:04.236Z,0.85
2023-10-22T12:24:20.381Z,1.30
2023-10-22T12:27:26.538Z,1.05
2023-10-22T12:30:28.658Z,0.90
2023-10-22T12:33:31.150Z,1.75
2023-10-22T12:36:33.305Z,1.40
2023-10-22T12:39:37.686Z,1.08
2023-10-22T12:42:42.604Z,1.63
2023-10-22T12:45:45.233Z,1.23
2023-10-22T12:48:47.317Z,0.93
2023-10-22T12:51:50.105Z,1.05
2023-10-22T12:54:53.451Z,1.02
2023-10-22T12:57:55.993Z,1.27
2023-10-22T13:01:00.983Z,1.20
2023-10-22T13:04:05.947Z,1.35
2023-10-22T13:07:08.201Z,1.23
2023-10-22T13:10:12.483Z,1.20
2023-10-22T13:13:14.896Z,1.52
2023-10-22T13:16:17.156Z,1.33
2023-10-22T13:19:20.389Z,1.25
2023-10-22T13:22:23.088Z,1.00
2023-10-22T13:25:28.193Z,1.00
2023-10-22T13:28:31.956Z,1.17
2023-10-22T13:31:34.468Z,1.67
2023-10-22T13:34:36.714Z,1.63
2023-10-22T13:37:38.835Z,1.63
2023-10-22T13:40:42.071Z,0.98
2023-10-22T13:43:44.829Z,0.57
2023-10-22T13:46:46.642Z,1.02
2023-10-22T13:49:49.644Z,0.88
2023-10-22T13:52:51.525Z,1.30
2023-10-22T13:56:03.924Z,0.75
2023-10-22T13:59:07.139Z,1.08
2023-10-22T14:02:09.053Z,0.82
2023-10-22T14:05:12.831Z,0.70
2023-10-22T14:08:14.749Z,1.10
2023-10-22T14:11:22.430Z,0.93
2023-10-22T14:14:24.616Z,1.13
2023-10-22T14:17:26.792Z,1.00
2023-10-22T14:20:28.880Z,1.40
2023-10-22T14:23:31.710Z,1.00
2023-10-22T14:26:35.118Z,0.90
2023-10-22T14:29:37.008Z,0.98
2023-10-22T14:32:41.415Z,1.00
2023-10-22T14:35:43.348Z,1.15
2023-10-22T14:38:45.712Z,0.85
2023-10-22T14:41:48.902Z,1.40
2023-10-22T14:44:51.785Z,0.70
2023-10-22T14:47:53.756Z,0.77
2023-10-22T14:50:56.636Z,1.85
2023-10-22T14:53:58.876Z,1.17
2023-10-22T14:57:04.246Z,0.98
2023-10-22T15:00:09.742Z,1.40
2023-10-22T15:03:12.999Z,1.25
2023-10-22T15:06:15.127Z,1.50
2023-10-22T15:09:17.318Z,1.95
2023-10-22T15:12:23.519Z,1.65
2023-10-22T15:15:25.850Z,1.60
2023-10-22T15:18:29.028Z,1.45
2023-10-22T15:21:31.596Z,1.50
2023-10-22T15:24:33.863Z,1.52
2023-10-22T15:27:37.996Z,1.50
2023-10-22T15:30:40.442Z,1.70
2023-10-22T15:33:42.684Z,1.48
2023-10-22T15:36:46.216Z,1.55
2023-10-22T15:39:48.908Z,1.67
2023-10-22T15:42:54.066Z,1.50
2023-10-22T15:45:57.025Z,2.20
2023-10-22T15:48:59.731Z,2.58
2023-10-22T15:52:01.864Z,3.65
2023-10-22T15:55:05.749Z,2.70
2023-10-22T15:58:09.312Z,2.90
2023-10-22T16:01:17.388Z,2.20
2023-10-22T16:04:20.546Z,2.92
2023-10-22T16:07:24.590Z,1.77
2023-10-22T16:10:27.585Z,1.88
2023-10-22T16:13:32.129Z,2.03
2023-10-22T16:16:34.691Z,2.10
2023-10-22T16:19:37.836Z,2.10
2023-10-22T16:22:40.334Z,2.25
2023-10-22T16:25:45.040Z,1.60
2023-10-22T16:28:49.199Z,3.42
2023-10-22T16:31:52.051Z,1.83
2023-10-22T16:34:54.662Z,1.30
2023-10-22T16:37:58.688Z,1.65
2023-10-22T16:41:08.071Z,1.40
2023-10-22T16:44:12.459Z,1.45
2023-10-22T16:47:15.638Z,1.45
2023-10-22T16:50:19.214Z,1.35
2023-10-22T16:53:21.672Z,1.40
2023-10-22T16:56:24.280Z,1.60
2023-10-22T16:59:28.117Z,2.28
2023-10-22T17:02:30.940Z,2.53
2023-10-22T17:05:35.737Z,2.63
2023-10-22T17:08:38.383Z,3.25
2023-10-22T17:11:42.169Z,6.43
2023-10-22T17:14:52.843Z,4.85
2023-10-22T17:17:56.413Z,4.45
2023-10-22T17:21:00.182Z,2.83
2023-10-22T17:24:03.454Z,2.90
2023-10-22T17:27:07.236Z,3.42
2023-10-22T17:30:13.458Z,3.63
2023-10-22T17:33:16.187Z,4.35
2023-10-22T17:36:19.110Z,4.95
2023-10-22T17:39:23.050Z,4.80
2023-10-22T17:42:26.788Z,3.42
2023-10-22T17:45:34.246Z,2.90
2023-10-22T17:48:38.152Z,4.07
2023-10-22T17:51:41.228Z,5.15
2023-10-22T17:55:05.637Z,6.13
2023-10-22T17:58:08.765Z,5.45
2023-10-22T18:01:13.521Z,4.38
2023-10-22T18:04:17.066Z,4.93
2023-10-22T18:07:21.060Z,3.40
2023-10-22T18:10:25.079Z,3.83
2023-10-22T18:13:29.555Z,3.00
2023-10-22T18:16:34.932Z,4.78
2023-10-22T18:19:41.156Z,5.32
2023-10-22T18:22:45.757Z,4.25
2023-10-22T18:26:01.929Z,5.13
2023-10-22T18:29:05.260Z,4.68
2023-10-22T18:32:13.333Z,4.57
2023-10-22T18:35:15.791Z,4.50
2023-10-22T18:38:21.406Z,5.32
2023-10-22T18:44:28.629Z,5.32
2023-10-22T18:47:36.507Z,6.63
2023-10-22T18:50:39.341Z,6.20
2023-10-22T18:53:44.558Z,6.95
2023-10-22T18:56:48.643Z,6.05
2023-10-22T18:59:51.285Z,6.53
2023-10-22T19:02:58.313Z,6.22
2023-10-22T19:06:01.906Z,6.95
2023-10-22T19:09:06.337Z,7.70
2023-10-22T19:12:11.977Z,6.03
2023-10-22T19:15:16.373Z,5.90
2023-10-22T19:18:22.083Z,6.03
2023-10-22T19:21:27.627Z,5.90
2023-10-22T19:24:31.264Z,5.88
2023-10-22T19:27:38.862Z,6.50
2023-10-22T19:30:42.908Z,7.45
2023-10-22T19:33:51.230Z,5.78
2023-10-22T19:36:55.154Z,6.80
2023-10-22T19:39:59.564Z,6.53
2023-10-22T19:43:03.643Z,5.18
2023-10-22T19:46:07.217Z,5.30
2023-10-22T19:49:12.539Z,5.78
2023-10-22T19:52:22.820Z,6.80
2023-10-22T19:55:37.813Z,7.05
2023-10-22T19:58:41.397Z,7.03
2023-10-22T20:01:44.779Z,6.10
2023-10-22T20:04:50.153Z,6.15
2023-10-22T20:07:53.482Z,6.35
2023-10-22T20:10:56.215Z,6.13
2023-10-22T20:13:59.220Z,6.15
2023-10-22T20:17:03.993Z,7.40
2023-10-22T20:20:10.777Z,7.55
2023-10-22T20:23:13.561Z,5.20
2023-10-22T20:26:17.003Z,6.28
2023-10-22T20:29:19.588Z,6.35
2023-10-22T20:32:22.081Z,6.72
2023-10-22T20:35:27.142Z,6.32
2023-10-22T20:38:29.201Z,5.32
2023-10-22T20:41:32.984Z,5.53
2023-10-22T20:44:35.411Z,4.63
2023-10-22T20:47:37.740Z,5.55
2023-10-22T20:50:41.053Z,4.28
2023-10-22T20:53:45.736Z,4.75
2023-10-22T20:56:48.034Z,5.57
2023-10-22T20:59:49.989Z,5.55
2023-10-22T21:02:51.888Z,4.38
2023-10-22T21:05:56.106Z,5.18
2023-10-22T21:08:59.905Z,4.00
2023-10-22T21:12:02.820Z,4.65
2023-10-22T21:15:05.873Z,4.35
2023-10-22T21:18:07.892Z,4.63
2023-10-22T21:21:12.267Z,3.95
2023-10-22T21:24:14.617Z,4.40
2023-10-22T21:27:16.755Z,4.07
2023-10-22T21:30:18.896Z,4.93
2023-10-22T21:33:24.702Z,4.75
2023-10-22T21:36:28.137Z,4.63
2023-10-22T21:39:30.066Z,4.60
2023-10-22T21:42:32.961Z,5.65
2023-10-22T21:45:35.031Z,3.80
2023-10-22T21:48:38.772Z,3.55
2023-10-22T21:51:42.150Z,4.53
2023-10-22T21:54:44.081Z,3.40
2023-10-22T21:57:49.137Z,3.60
2023-10-22T22:00:51.387Z,4.32
2023-10-22T22:03:58.087Z,4.25
2023-10-22T22:07:01.477Z,5.07
2023-10-22T22:10:05.170Z,4.38
2023-10-22T22:13:07.089Z,4.32
2023-10-22T22:16:09.695Z,4.32
2023-10-22T22:19:11.811Z,4.40
2023-10-22T22:22:16.875Z,3.72
2023-10-22T22:25:21.329Z,4.13
2023-10-22T22:28:29.733Z,4.07
2023-10-22T22:31:31.629Z,3.85
2023-10-22T22:34:33.589Z,3.45
2023-10-22T22:37:40.161Z,3.75
2023-10-22T22:40:42.264Z,3.42
2023-10-22T22:43:47.659Z,3.80
2023-10-22T22:46:49.698Z,3.38
2023-10-22T22:49:58.800Z,4.50
2023-10-22T22:53:02.253Z,3.67
2023-10-22T22:56:05.705Z,3.38
2023-10-22T22:59:07.679Z,2.80
2023-10-22T23:02:10.614Z,3.30
2023-10-22T23:05:12.664Z,2.88
2023-10-22T23:08:16.931Z,4.20
2023-10-22T23:11:18.897Z,4.35
2023-10-22T23:14:20.748Z,3.67
2023-10-22T23:17:22.620Z,3.85
2023-10-22T23:20:24.476Z,3.95
2023-10-22T23:23:27.811Z,3.13
2023-10-22T23:26:30.164Z,3.53
2023-10-22T23:29:32.411Z,3.50
2023-10-22T23:32:34.342Z,3.20
2023-10-22T23:35:37.021Z,3.70
2023-10-22T23:38:40.694Z,3.22
2023-10-22T23:41:42.537Z,3.03
2023-10-22T23:44:45.366Z,3.67
2023-10-22T23:47:47.262Z,4.28
2023-10-22T23:50:49.133Z,3.90
2023-10-22T23:53:52.447Z,3.80
2023-10-22T23:56:54.255Z,4.00
2023-10-22T23:59:56.624Z,3.90
